Buoy 44845

sailwx.info

Track history (hours):
 
Tides and Currents Weather Stations Pressure Air Temp Water Temp Dewpoint Dewpoint Depression Visibility Wind Speed Wind Dir Waves Ship Positions

Drifting buoy 44845

Last reported at 2016-May-28 20:01 UTC. Time now 2016-May-28 20:41 UTC.
Position N 72°36' E 010°13'.

Date/timePositionNaut miles runAvg speedWind from/ knotsBaromVisibWave heightAir tempDewpointWater temp
2016-May-28 20:01N 72°36' E 010°13'0 0.3
2016-May-28 19:01N 72°36' E 010°13'1 0.3
2016-May-28 17:01N 72°36' E 010°11'0 0.4
2016-May-28 16:01N 72°36' E 010°10'0 0.4
2016-May-28 15:01N 72°36' E 010°08'0 0.3
2016-May-28 14:01N 72°36' E 010°07'0 0.3
2016-May-28 13:01N 72°36' E 010°06'0 0.2
2016-May-28 12:01N 72°36' E 010°06'0 0.3
2016-May-28 11:01N 72°36' E 010°05'0 0.3
2016-May-28 10:01N 72°36' E 010°04'0 0.3
2016-May-28 09:01N 72°36' E 010°03'0 0.4
2016-May-28 08:01N 72°35' E 010°01'1 0.6
2016-May-28 07:01N 72°35' E 009°59'1 0.7
2016-May-28 06:01N 72°35' E 009°57'1 0.8
2016-May-28 05:01N 72°35' E 009°54'1 0.9
2016-May-28 04:01N 72°35' E 009°51'1 0.8
2016-May-28 03:01N 72°35' E 009°49'1 0.8
2016-May-28 02:01N 72°35' E 009°46'1 0.7
2016-May-28 01:01N 72°34' E 009°44'1 0.6
2016-May-28 00:01N 72°34' E 009°42'1 0.7
2016-May-27 23:01N 72°35' E 009°40'2 0.9
2016-May-27 21:01N 72°35' E 009°34'1 0.9
2016-May-27 20:01N 72°36' E 009°32'1 0.9
2016-May-27 19:01N 72°36' E 009°29'1 0.9
2016-May-27 18:01N 72°36' E 009°27'1 0.8
2016-May-27 17:01N 72°37' E 009°24'1 0.8
2016-May-27 16:01N 72°37' E 009°22'1 0.7
2016-May-27 15:01N 72°37' E 009°19'1 0.5
2016-May-27 14:01N 72°37' E 009°17'1 0.5
2016-May-27 13:01N 72°37' E 009°16'0 0.4
2016-May-27 12:01N 72°37' E 009°14'0 0.4
2016-May-27 11:01N 72°37' E 009°13'0 0.5
2016-May-27 10:01N 72°37' E 009°11'0 0.4
2016-May-27 09:01N 72°37' E 009°10'1 0.5
2016-May-27 08:01N 72°36' E 009°09'1 0.6
2016-May-27 07:01N 72°36' E 009°07'1 0.7
2016-May-27 06:01N 72°36' E 009°05'1 0.9
2016-May-27 05:01N 72°35' E 009°03'1 1.0
2016-May-27 04:01N 72°35' E 009°00'1 1.1
2016-May-27 03:01N 72°34' E 008°58'1 1.2
2016-May-27 02:01N 72°33' E 008°55'2 1.1
2016-May-27 00:01N 72°31' E 008°50'1 0.9
2016-May-26 23:01N 72°31' E 008°48'1 1.0
2016-May-26 22:01N 72°30' E 008°45'1 0.9
2016-May-26 21:01N 72°30' E 008°42'1 0.9
2016-May-26 20:01N 72°29' E 008°40'1 0.9
2016-May-26 19:01N 72°28' E 008°38'2 0.8
2016-May-26 17:01N 72°27' E 008°36'1 0.7
2016-May-26 16:01N 72°26' E 008°35'1 0.5
2016-May-26 15:01N 72°26' E 008°35'0 0.4
2016-May-26 14:01N 72°25' E 008°35'0 0.3
2016-May-26 13:01N 72°25' E 008°34'0 0.3
2016-May-26 12:01N 72°25' E 008°33'0 0.3
2016-May-26 11:01N 72°25' E 008°32'1 0.5
2016-May-26 09:01N 72°24' E 008°29'1 0.7
2016-May-26 08:01N 72°24' E 008°27'1 0.7
2016-May-26 07:01N 72°23' E 008°26'1 0.8
2016-May-26 06:01N 72°23' E 008°24'1 0.9
2016-May-26 05:01N 72°22' E 008°22'1 0.8
2016-May-26 04:01N 72°22' E 008°20'1 0.8
2016-May-26 03:01N 72°21' E 008°18'1 0.8
2016-May-26 02:01N 72°20' E 008°17'1 0.6
2016-May-26 01:01N 72°20' E 008°16'1 0.6
2016-May-26 00:01N 72°20' E 008°14'1 0.6
2016-May-25 23:01N 72°19' E 008°13'1 0.6
2016-May-25 21:01N 72°18' E 008°09'1 0.7
2016-May-25 20:01N 72°18' E 008°08'1 0.7
2016-May-25 19:01N 72°18' E 008°06'1 0.7
2016-May-25 17:01N 72°17' E 008°03'1 0.8
2016-May-25 16:01N 72°16' E 008°01'1 0.8
2016-May-25 15:01N 72°15' E 007°60'1 0.7
2016-May-25 14:01N 72°14' E 007°59'1 0.7
2016-May-25 13:01N 72°14' E 007°59'1 0.7
2016-May-25 12:01N 72°13' E 007°59'1 0.6
2016-May-25 11:01N 72°12' E 007°59'1 0.6
2016-May-25 10:01N 72°12' E 007°59'0 0.5
2016-May-25 09:01N 72°12' E 007°60'1 0.5
2016-May-25 08:01N 72°11' E 008°01'1 0.5
2016-May-25 06:01N 72°10' E 008°03'1 0.6
2016-May-25 05:01N 72°10' E 008°04'1 0.6
2016-May-25 04:01N 72°09' E 008°06'1 0.7
2016-May-25 03:01N 72°09' E 008°07'1 0.7
2016-May-25 02:01N 72°08' E 008°08'1 0.9
2016-May-25 01:01N 72°07' E 008°09'1 0.8
2016-May-25 00:01N 72°07' E 008°10'2 0.9
2016-May-24 22:01N 72°05' E 008°13'1 0.8
2016-May-24 21:01N 72°04' E 008°15'1 0.8
2016-May-24 20:01N 72°04' E 008°16'1 0.7
2016-May-24 19:01N 72°03' E 008°17'1 0.6
2016-May-24 18:01N 72°03' E 008°18'0 0.5
2016-May-24 17:01N 72°02' E 008°19'0 0.5
2016-May-24 16:01N 72°02' E 008°19'1 0.6
2016-May-24 15:01N 72°01' E 008°19'1 0.7
2016-May-24 14:01N 72°00' E 008°18'1 0.8
2016-May-24 13:01N 71°60' E 008°17'1 1.0
2016-May-24 12:01N 71°59' E 008°15'1 1.0
2016-May-24 11:01N 71°58' E 008°13'1 1.0
2016-May-24 10:01N 71°57' E 008°11'1 0.9
2016-May-24 09:01N 71°57' E 008°08'1 0.8
2016-May-24 08:01N 71°57' E 008°06'1 0.8
2016-May-24 07:01N 71°56' E 008°04'1 0.8
2016-May-24 06:01N 71°56' E 008°02'1 0.7
2016-May-24 05:01N 71°56' E 007°59'1 0.8
2016-May-24 04:01N 71°56' E 007°57'1 0.9
2016-May-24 03:01N 71°56' E 007°54'1 0.9
2016-May-24 02:01N 71°56' E 007°51'1 0.8
2016-May-24 01:01N 71°57' E 007°48'1 0.6
2016-May-24 00:01N 71°57' E 007°47'1 0.7
2016-May-23 23:01N 71°57' E 007°45'1 0.7
2016-May-23 22:01N 71°58' E 007°44'1 0.8
2016-May-23 21:01N 71°59' E 007°42'1 0.8
2016-May-23 20:01N 71°59' E 007°41'1 0.9
2016-May-23 19:01N 72°00' E 007°41'1 0.9
2016-May-23 18:01N 72°01' E 007°40'1 1.0
2016-May-23 17:01N 72°02' E 007°40'1 1.1
2016-May-23 16:02N 72°03' E 007°40'1 1.2
2016-May-23 15:01N 72°05' E 007°41'1 1.1
2016-May-23 14:01N 72°06' E 007°42'2 1.1
2016-May-23 12:01N 72°08' E 007°44'1 1.1
2016-May-23 11:01N 72°09' E 007°45'1 0.9
2016-May-23 10:01N 72°10' E 007°46'1 0.8
2016-May-23 09:01N 72°10' E 007°47'1 0.6
2016-May-23 08:01N 72°11' E 007°49'1 0.6
2016-May-23 07:01N 72°11' E 007°51'1 0.5
2016-May-23 06:01N 72°11' E 007°52'1 0.6
2016-May-23 04:01N 72°10' E 007°56'1 0.7
2016-May-23 03:01N 72°10' E 007°57'1 0.8
2016-May-23 02:01N 72°09' E 007°59'1 0.8
2016-May-23 01:01N 72°09' E 007°59'2 0.8
2016-May-22 23:01N 72°07' E 007°59'1 0.9
2016-May-22 22:01N 72°06' E 007°59'1 0.9
2016-May-22 21:01N 72°05' E 007°58'1 0.8
2016-May-22 20:01N 72°04' E 007°57'1 0.7
2016-May-22 19:01N 72°04' E 007°56'2 1.7
2016-May-22 18:01N 72°02' E 007°52'0 0.0
2016-May-22 17:01N 72°02' E 007°52'1 1.0
2016-May-22 16:01N 72°02' E 007°49'1 1.2
2016-May-22 15:01N 72°02' E 007°45'1 1.5
2016-May-22 14:01N 72°02' E 007°40'2 1.6
2016-May-22 13:01N 72°02' E 007°35'2 1.5
2016-May-22 12:01N 72°03' E 007°30'2 1.5
2016-May-22 11:01N 72°04' E 007°27'7 1.8
2016-May-22 07:01N 72°10' E 007°18'2 2.2
2016-May-22 06:01N 72°13' E 007°17'5 2.3
2016-May-22 04:01N 72°17' E 007°15'2 1.7
2016-May-22 03:01N 72°19' E 007°14'1 1.4
2016-May-22 02:01N 72°20' E 007°14'1 0.7
2016-May-22 01:01N 72°21' E 007°14'1 0.5
2016-May-21 23:01N 72°21' E 007°18'1 0.6
2016-May-21 22:01N 72°21' E 007°20'1 0.7
2016-May-21 21:01N 72°21' E 007°22'1 0.7
2016-May-21 20:01N 72°21' E 007°24'1 0.7
2016-May-21 19:01N 72°21' E 007°26'1 0.8
2016-May-21 18:01N 72°22' E 007°29'2 0.9
2016-May-21 16:01N 72°22' E 007°35'1 0.8
2016-May-21 15:01N 72°22' E 007°37'1 0.8
2016-May-21 14:01N 72°22' E 007°40'1 0.7
2016-May-21 13:01N 72°22' E 007°42'1 0.6
2016-May-21 12:01N 72°22' E 007°44'1 0.7
2016-May-21 11:01N 72°23' E 007°46'1 0.7
2016-May-21 10:01N 72°23' E 007°48'1 0.6
2016-May-21 09:01N 72°23' E 007°50'1 0.6
2016-May-21 08:01N 72°24' E 007°51'1 0.6
2016-May-21 07:01N 72°24' E 007°52'1 0.6
2016-May-21 06:01N 72°25' E 007°53'1 0.5
2016-May-21 05:01N 72°25' E 007°54'1 0.5
2016-May-21 04:01N 72°26' E 007°55'1 0.5
2016-May-21 03:01N 72°26' E 007°55'0 0.4
2016-May-21 02:01N 72°27' E 007°56'1 0.6
2016-May-21 01:01N 72°27' E 007°56'0 0.4
2016-May-21 00:01N 72°27' E 007°56'0 0.4
2016-May-20 23:01N 72°28' E 007°56'1 0.3
2016-May-20 21:01N 72°28' E 007°57'0 0.4
2016-May-20 20:01N 72°29' E 007°57'0 0.5
2016-May-20 19:01N 72°29' E 007°56'1 0.7
2016-May-20 17:01N 72°31' E 007°56'1 0.8
2016-May-20 16:01N 72°32' E 007°55'1 0.8
2016-May-20 15:01N 72°32' E 007°53'2 0.7
2016-May-20 12:01N 72°34' E 007°49'0 0.5
2016-May-20 11:01N 72°34' E 007°48'1 0.5
2016-May-20 10:01N 72°35' E 007°47'1 0.5
2016-May-20 09:01N 72°35' E 007°47'1 0.7
2016-May-20 08:01N 72°36' E 007°47'1 0.9
2016-May-20 07:01N 72°37' E 007°47'1 1.0
2016-May-20 06:01N 72°38' E 007°46'1 1.1
2016-May-20 05:01N 72°39' E 007°45'1 1.0
2016-May-20 04:01N 72°40' E 007°43'1 0.9
2016-May-20 03:01N 72°40' E 007°41'1 0.6
2016-May-20 02:01N 72°41' E 007°39'0 0.5
2016-May-20 01:01N 72°41' E 007°38'0 0.2
2016-May-20 00:01N 72°41' E 007°38'0 0.2
2016-May-19 23:01N 72°41' E 007°38'0 0.2
2016-May-19 22:01N 72°41' E 007°39'0 0.0
2016-May-19 21:01N 72°41' E 007°39'0 0.1
2016-May-19 20:01N 72°41' E 007°38'0 0.3
2016-May-19 19:01N 72°41' E 007°37'0 0.4
2016-May-19 18:01N 72°42' E 007°36'1 0.6
2016-May-19 17:01N 72°42' E 007°34'1 0.7
2016-May-19 16:01N 72°42' E 007°32'1 0.8
2016-May-19 15:01N 72°42' E 007°30'1 0.8
2016-May-19 14:01N 72°42' E 007°27'1 0.8
2016-May-19 13:01N 72°41' E 007°25'1 0.7
2016-May-19 12:01N 72°41' E 007°23'1 0.7
2016-May-19 11:01N 72°40' E 007°21'1 0.6
2016-May-19 10:01N 72°40' E 007°20'0 0.3
2016-May-19 09:01N 72°40' E 007°19'0 0.3
2016-May-19 08:01N 72°40' E 007°18'0 0.4
2016-May-19 07:01N 72°40' E 007°16'1 0.5
2016-May-19 06:01N 72°40' E 007°15'1 0.6
2016-May-19 05:01N 72°40' E 007°13'1 0.7
2016-May-19 04:01N 72°40' E 007°11'1 0.7
2016-May-19 03:01N 72°40' E 007°08'1 0.8
2016-May-19 02:01N 72°40' E 007°05'1 0.8
2016-May-19 01:01N 72°40' E 007°03'1 0.8
2016-May-19 00:01N 72°40' E 007°00'1 0.8
2016-May-18 23:01N 72°40' E 006°57'1 0.8
2016-May-18 22:01N 72°40' E 006°55'1 0.7
2016-May-18 21:01N 72°40' E 006°52'1 0.8
2016-May-18 20:01N 72°41' E 006°50'  
Track history (hours):
 
Tides and Currents Weather Stations Pressure Air Temp Water Temp Dewpoint Dewpoint Depression Visibility Wind Speed Wind Dir Waves Ship Positions

Drifting buoy 44845

Last reported at 2016-May-28 20:01 UTC. Time now 2016-May-28 20:41 UTC.
Position N 72°36' E 010°13'.

Date/timePositionNaut miles runAvg speedWind from/ knotsBaromVisibWave heightAir tempDewpointWater temp
2016-May-28 20:01N 72°36' E 010°13'0 0.3
2016-May-28 19:01N 72°36' E 010°13'1 0.3
2016-May-28 17:01N 72°36' E 010°11'0 0.4
2016-May-28 16:01N 72°36' E 010°10'0 0.4
2016-May-28 15:01N 72°36' E 010°08'0 0.3
2016-May-28 14:01N 72°36' E 010°07'0 0.3
2016-May-28 13:01N 72°36' E 010°06'0 0.2
2016-May-28 12:01N 72°36' E 010°06'0 0.3
2016-May-28 11:01N 72°36' E 010°05'0 0.3
2016-May-28 10:01N 72°36' E 010°04'0 0.3
2016-May-28 09:01N 72°36' E 010°03'0 0.4
2016-May-28 08:01N 72°35' E 010°01'1 0.6
2016-May-28 07:01N 72°35' E 009°59'1 0.7
2016-May-28 06:01N 72°35' E 009°57'1 0.8
2016-May-28 05:01N 72°35' E 009°54'1 0.9
2016-May-28 04:01N 72°35' E 009°51'1 0.8
2016-May-28 03:01N 72°35' E 009°49'1 0.8
2016-May-28 02:01N 72°35' E 009°46'1 0.7
2016-May-28 01:01N 72°34' E 009°44'1 0.6
2016-May-28 00:01N 72°34' E 009°42'1 0.7
2016-May-27 23:01N 72°35' E 009°40'2 0.9
2016-May-27 21:01N 72°35' E 009°34'1 0.9
2016-May-27 20:01N 72°36' E 009°32'1 0.9
2016-May-27 19:01N 72°36' E 009°29'1 0.9
2016-May-27 18:01N 72°36' E 009°27'1 0.8
2016-May-27 17:01N 72°37' E 009°24'1 0.8
2016-May-27 16:01N 72°37' E 009°22'1 0.7
2016-May-27 15:01N 72°37' E 009°19'1 0.5
2016-May-27 14:01N 72°37' E 009°17'1 0.5
2016-May-27 13:01N 72°37' E 009°16'0 0.4
2016-May-27 12:01N 72°37' E 009°14'0 0.4
2016-May-27 11:01N 72°37' E 009°13'0 0.5
2016-May-27 10:01N 72°37' E 009°11'0 0.4
2016-May-27 09:01N 72°37' E 009°10'1 0.5
2016-May-27 08:01N 72°36' E 009°09'1 0.6
2016-May-27 07:01N 72°36' E 009°07'1 0.7
2016-May-27 06:01N 72°36' E 009°05'1 0.9
2016-May-27 05:01N 72°35' E 009°03'1 1.0
2016-May-27 04:01N 72°35' E 009°00'1 1.1
2016-May-27 03:01N 72°34' E 008°58'1 1.2
2016-May-27 02:01N 72°33' E 008°55'2 1.1
2016-May-27 00:01N 72°31' E 008°50'1 0.9
2016-May-26 23:01N 72°31' E 008°48'1 1.0
2016-May-26 22:01N 72°30' E 008°45'1 0.9
2016-May-26 21:01N 72°30' E 008°42'1 0.9
2016-May-26 20:01N 72°29' E 008°40'1 0.9
2016-May-26 19:01N 72°28' E 008°38'2 0.8
2016-May-26 17:01N 72°27' E 008°36'1 0.7
2016-May-26 16:01N 72°26' E 008°35'1 0.5
2016-May-26 15:01N 72°26' E 008°35'0 0.4
2016-May-26 14:01N 72°25' E 008°35'0 0.3
2016-May-26 13:01N 72°25' E 008°34'0 0.3
2016-May-26 12:01N 72°25' E 008°33'0 0.3
2016-May-26 11:01N 72°25' E 008°32'1 0.5
2016-May-26 09:01N 72°24' E 008°29'1 0.7
2016-May-26 08:01N 72°24' E 008°27'1 0.7
2016-May-26 07:01N 72°23' E 008°26'1 0.8
2016-May-26 06:01N 72°23' E 008°24'1 0.9
2016-May-26 05:01N 72°22' E 008°22'1 0.8
2016-May-26 04:01N 72°22' E 008°20'1 0.8
2016-May-26 03:01N 72°21' E 008°18'1 0.8
2016-May-26 02:01N 72°20' E 008°17'1 0.6
2016-May-26 01:01N 72°20' E 008°16'1 0.6
2016-May-26 00:01N 72°20' E 008°14'1 0.6
2016-May-25 23:01N 72°19' E 008°13'1 0.6
2016-May-25 21:01N 72°18' E 008°09'1 0.7
2016-May-25 20:01N 72°18' E 008°08'1 0.7
2016-May-25 19:01N 72°18' E 008°06'1 0.7
2016-May-25 17:01N 72°17' E 008°03'1 0.8
2016-May-25 16:01N 72°16' E 008°01'1 0.8
2016-May-25 15:01N 72°15' E 007°60'1 0.7
2016-May-25 14:01N 72°14' E 007°59'1 0.7
2016-May-25 13:01N 72°14' E 007°59'1 0.7
2016-May-25 12:01N 72°13' E 007°59'1 0.6
2016-May-25 11:01N 72°12' E 007°59'1 0.6
2016-May-25 10:01N 72°12' E 007°59'0 0.5
2016-May-25 09:01N 72°12' E 007°60'1 0.5
2016-May-25 08:01N 72°11' E 008°01'1 0.5
2016-May-25 06:01N 72°10' E 008°03'1 0.6
2016-May-25 05:01N 72°10' E 008°04'1 0.6
2016-May-25 04:01N 72°09' E 008°06'1 0.7
2016-May-25 03:01N 72°09' E 008°07'1 0.7
2016-May-25 02:01N 72°08' E 008°08'1 0.9
2016-May-25 01:01N 72°07' E 008°09'1 0.8
2016-May-25 00:01N 72°07' E 008°10'2 0.9
2016-May-24 22:01N 72°05' E 008°13'1 0.8
2016-May-24 21:01N 72°04' E 008°15'1 0.8
2016-May-24 20:01N 72°04' E 008°16'1 0.7
2016-May-24 19:01N 72°03' E 008°17'1 0.6
2016-May-24 18:01N 72°03' E 008°18'0 0.5
2016-May-24 17:01N 72°02' E 008°19'0 0.5
2016-May-24 16:01N 72°02' E 008°19'1 0.6
2016-May-24 15:01N 72°01' E 008°19'1 0.7
2016-May-24 14:01N 72°00' E 008°18'1 0.8
2016-May-24 13:01N 71°60' E 008°17'1 1.0
2016-May-24 12:01N 71°59' E 008°15'1 1.0
2016-May-24 11:01N 71°58' E 008°13'1 1.0
2016-May-24 10:01N 71°57' E 008°11'1 0.9
2016-May-24 09:01N 71°57' E 008°08'1 0.8
2016-May-24 08:01N 71°57' E 008°06'1 0.8
2016-May-24 07:01N 71°56' E 008°04'1 0.8
2016-May-24 06:01N 71°56' E 008°02'1 0.7
2016-May-24 05:01N 71°56' E 007°59'1 0.8
2016-May-24 04:01N 71°56' E 007°57'1 0.9
2016-May-24 03:01N 71°56' E 007°54'1 0.9
2016-May-24 02:01N 71°56' E 007°51'1 0.8
2016-May-24 01:01N 71°57' E 007°48'1 0.6
2016-May-24 00:01N 71°57' E 007°47'1 0.7
2016-May-23 23:01N 71°57' E 007°45'1 0.7
2016-May-23 22:01N 71°58' E 007°44'1 0.8
2016-May-23 21:01N 71°59' E 007°42'1 0.8
2016-May-23 20:01N 71°59' E 007°41'1 0.9
2016-May-23 19:01N 72°00' E 007°41'1 0.9
2016-May-23 18:01N 72°01' E 007°40'1 1.0
2016-May-23 17:01N 72°02' E 007°40'1 1.1
2016-May-23 16:02N 72°03' E 007°40'1 1.2
2016-May-23 15:01N 72°05' E 007°41'1 1.1
2016-May-23 14:01N 72°06' E 007°42'2 1.1
2016-May-23 12:01N 72°08' E 007°44'1 1.1
2016-May-23 11:01N 72°09' E 007°45'1 0.9
2016-May-23 10:01N 72°10' E 007°46'1 0.8
2016-May-23 09:01N 72°10' E 007°47'1 0.6
2016-May-23 08:01N 72°11' E 007°49'1 0.6
2016-May-23 07:01N 72°11' E 007°51'1 0.5
2016-May-23 06:01N 72°11' E 007°52'1 0.6
2016-May-23 04:01N 72°10' E 007°56'1 0.7
2016-May-23 03:01N 72°10' E 007°57'1 0.8
2016-May-23 02:01N 72°09' E 007°59'1 0.8
2016-May-23 01:01N 72°09' E 007°59'2 0.8
2016-May-22 23:01N 72°07' E 007°59'1 0.9
2016-May-22 22:01N 72°06' E 007°59'1 0.9
2016-May-22 21:01N 72°05' E 007°58'1 0.8
2016-May-22 20:01N 72°04' E 007°57'1 0.7
2016-May-22 19:01N 72°04' E 007°56'2 1.7
2016-May-22 18:01N 72°02' E 007°52'0 0.0
2016-May-22 17:01N 72°02' E 007°52'1 1.0
2016-May-22 16:01N 72°02' E 007°49'1 1.2
2016-May-22 15:01N 72°02' E 007°45'1 1.5
2016-May-22 14:01N 72°02' E 007°40'2 1.6
2016-May-22 13:01N 72°02' E 007°35'2 1.5
2016-May-22 12:01N 72°03' E 007°30'2 1.5
2016-May-22 11:01N 72°04' E 007°27'7 1.8
2016-May-22 07:01N 72°10' E 007°18'2 2.2
2016-May-22 06:01N 72°13' E 007°17'5 2.3
2016-May-22 04:01N 72°17' E 007°15'2 1.7
2016-May-22 03:01N 72°19' E 007°14'1 1.4
2016-May-22 02:01N 72°20' E 007°14'1 0.7
2016-May-22 01:01N 72°21' E 007°14'1 0.5
2016-May-21 23:01N 72°21' E 007°18'1 0.6
2016-May-21 22:01N 72°21' E 007°20'1 0.7
2016-May-21 21:01N 72°21' E 007°22'1 0.7
2016-May-21 20:01N 72°21' E 007°24'1 0.7
2016-May-21 19:01N 72°21' E 007°26'1 0.8
2016-May-21 18:01N 72°22' E 007°29'2 0.9
2016-May-21 16:01N 72°22' E 007°35'1 0.8
2016-May-21 15:01N 72°22' E 007°37'1 0.8
2016-May-21 14:01N 72°22' E 007°40'1 0.7
2016-May-21 13:01N 72°22' E 007°42'1 0.6
2016-May-21 12:01N 72°22' E 007°44'1 0.7
2016-May-21 11:01N 72°23' E 007°46'1 0.7
2016-May-21 10:01N 72°23' E 007°48'1 0.6
2016-May-21 09:01N 72°23' E 007°50'1 0.6
2016-May-21 08:01N 72°24' E 007°51'1 0.6
2016-May-21 07:01N 72°24' E 007°52'1 0.6
2016-May-21 06:01N 72°25' E 007°53'1 0.5
2016-May-21 05:01N 72°25' E 007°54'1 0.5
2016-May-21 04:01N 72°26' E 007°55'1 0.5
2016-May-21 03:01N 72°26' E 007°55'0 0.4
2016-May-21 02:01N 72°27' E 007°56'1 0.6
2016-May-21 01:01N 72°27' E 007°56'0 0.4
2016-May-21 00:01N 72°27' E 007°56'0 0.4
2016-May-20 23:01N 72°28' E 007°56'1 0.3
2016-May-20 21:01N 72°28' E 007°57'0 0.4
2016-May-20 20:01N 72°29' E 007°57'0 0.5
2016-May-20 19:01N 72°29' E 007°56'1 0.7
2016-May-20 17:01N 72°31' E 007°56'1 0.8
2016-May-20 16:01N 72°32' E 007°55'1 0.8
2016-May-20 15:01N 72°32' E 007°53'2 0.7
2016-May-20 12:01N 72°34' E 007°49'0 0.5
2016-May-20 11:01N 72°34' E 007°48'1 0.5
2016-May-20 10:01N 72°35' E 007°47'1 0.5
2016-May-20 09:01N 72°35' E 007°47'1 0.7
2016-May-20 08:01N 72°36' E 007°47'1 0.9
2016-May-20 07:01N 72°37' E 007°47'1 1.0
2016-May-20 06:01N 72°38' E 007°46'1 1.1
2016-May-20 05:01N 72°39' E 007°45'1 1.0
2016-May-20 04:01N 72°40' E 007°43'1 0.9
2016-May-20 03:01N 72°40' E 007°41'1 0.6
2016-May-20 02:01N 72°41' E 007°39'0 0.5
2016-May-20 01:01N 72°41' E 007°38'0 0.2
2016-May-20 00:01N 72°41' E 007°38'0 0.2
2016-May-19 23:01N 72°41' E 007°38'0 0.2
2016-May-19 22:01N 72°41' E 007°39'0 0.0
2016-May-19 21:01N 72°41' E 007°39'0 0.1
2016-May-19 20:01N 72°41' E 007°38'0 0.3
2016-May-19 19:01N 72°41' E 007°37'0 0.4
2016-May-19 18:01N 72°42' E 007°36'1 0.6
2016-May-19 17:01N 72°42' E 007°34'1 0.7
2016-May-19 16:01N 72°42' E 007°32'1 0.8
2016-May-19 15:01N 72°42' E 007°30'1 0.8
2016-May-19 14:01N 72°42' E 007°27'1 0.8
2016-May-19 13:01N 72°41' E 007°25'1 0.7
2016-May-19 12:01N 72°41' E 007°23'1 0.7
2016-May-19 11:01N 72°40' E 007°21'1 0.6
2016-May-19 10:01N 72°40' E 007°20'0 0.3
2016-May-19 09:01N 72°40' E 007°19'0 0.3
2016-May-19 08:01N 72°40' E 007°18'0 0.4
2016-May-19 07:01N 72°40' E 007°16'1 0.5
2016-May-19 06:01N 72°40' E 007°15'1 0.6
2016-May-19 05:01N 72°40' E 007°13'1 0.7
2016-May-19 04:01N 72°40' E 007°11'1 0.7
2016-May-19 03:01N 72°40' E 007°08'1 0.8
2016-May-19 02:01N 72°40' E 007°05'1 0.8
2016-May-19 01:01N 72°40' E 007°03'1 0.8
2016-May-19 00:01N 72°40' E 007°00'1 0.8
2016-May-18 23:01N 72°40' E 006°57'1 0.8
2016-May-18 22:01N 72°40' E 006°55'1 0.7
2016-May-18 21:01N 72°40' E 006°52'1 0.8
2016-May-18 20:01N 72°41' E 006°50'  

Dump ship's entire track history